sensor_id;sensor_type;location;lat;lon;timestamp;P1;durP1;ratioP1;P2;durP2;ratioP2
20908;SDS011;10614;53.198;6.570;2023-02-23T00:00:57;37.83;;;14.82;;
20908;SDS011;10614;53.198;6.570;2023-02-23T00:02:59;32.17;;;13.57;;
20908;SDS011;10614;53.198;6.570;2023-02-23T00:05:02;35.85;;;15.18;;
20908;SDS011;10614;53.198;6.570;2023-02-23T00:07:03;37.65;;;15.00;;
20908;SDS011;10614;53.198;6.570;2023-02-23T00:09:08;35.72;;;14.75;;
20908;SDS011;10614;53.198;6.570;2023-02-23T00:11:21;35.20;;;13.95;;
20908;SDS011;10614;53.198;6.570;2023-02-23T00:13:23;41.83;;;17.30;;
20908;SDS011;10614;53.198;6.570;2023-02-23T00:15:25;40.60;;;16.75;;
20908;SDS011;10614;53.198;6.570;2023-02-23T00:17:28;34.22;;;15.00;;
20908;SDS011;10614;53.198;6.570;2023-02-23T00:19:30;35.15;;;14.23;;
20908;SDS011;10614;53.198;6.570;2023-02-23T00:21:36;40.30;;;15.57;;
20908;SDS011;10614;53.198;6.570;2023-02-23T00:23:39;41.75;;;17.23;;
20908;SDS011;10614;53.198;6.570;2023-02-23T00:25:43;35.70;;;15.93;;
20908;SDS011;10614;53.198;6.570;2023-02-23T00:27:44;43.63;;;17.63;;
20908;SDS011;10614;53.198;6.570;2023-02-23T00:29:47;39.25;;;16.27;;
20908;SDS011;10614;53.198;6.570;2023-02-23T00:31:50;46.15;;;16.80;;
20908;SDS011;10614;53.198;6.570;2023-02-23T00:33:52;40.00;;;16.92;;
20908;SDS011;10614;53.198;6.570;2023-02-23T00:35:54;41.08;;;17.88;;
20908;SDS011;10614;53.198;6.570;2023-02-23T00:37:56;46.42;;;17.58;;
20908;SDS011;10614;53.198;6.570;2023-02-23T00:39:58;45.78;;;17.13;;
20908;SDS011;10614;53.198;6.570;2023-02-23T00:42:01;43.75;;;17.42;;
20908;SDS011;10614;53.198;6.570;2023-02-23T00:44:05;40.80;;;16.05;;
20908;SDS011;10614;53.198;6.570;2023-02-23T00:46:07;44.25;;;18.48;;
20908;SDS011;10614;53.198;6.570;2023-02-23T00:48:08;41.97;;;17.27;;
20908;SDS011;10614;53.198;6.570;2023-02-23T00:50:11;40.00;;;15.73;;
20908;SDS011;10614;53.198;6.570;2023-02-23T00:52:15;49.95;;;18.75;;
20908;SDS011;10614;53.198;6.570;2023-02-23T00:54:17;52.10;;;19.45;;
20908;SDS011;10614;53.198;6.570;2023-02-23T00:56:20;47.47;;;18.75;;
20908;SDS011;10614;53.198;6.570;2023-02-23T00:58:23;43.58;;;17.90;;
20908;SDS011;10614;53.198;6.570;2023-02-23T01:00:26;46.13;;;18.27;;
20908;SDS011;10614;53.198;6.570;2023-02-23T01:02:28;45.70;;;17.85;;
20908;SDS011;10614;53.198;6.570;2023-02-23T01:04:30;43.53;;;18.33;;
20908;SDS011;10614;53.198;6.570;2023-02-23T01:06:32;47.55;;;18.40;;
20908;SDS011;10614;53.198;6.570;2023-02-23T01:08:37;37.85;;;15.23;;
20908;SDS011;10614;53.198;6.570;2023-02-23T01:10:40;45.73;;;18.07;;
20908;SDS011;10614;53.198;6.570;2023-02-23T01:12:43;45.15;;;19.00;;
20908;SDS011;10614;53.198;6.570;2023-02-23T01:14:47;57.25;;;22.10;;
20908;SDS011;10614;53.198;6.570;2023-02-23T01:16:49;60.40;;;22.65;;
20908;SDS011;10614;53.198;6.570;2023-02-23T01:18:51;47.63;;;20.30;;
20908;SDS011;10614;53.198;6.570;2023-02-23T01:20:52;51.13;;;19.38;;
20908;SDS011;10614;53.198;6.570;2023-02-23T01:22:54;43.30;;;18.20;;
20908;SDS011;10614;53.198;6.570;2023-02-23T01:24:56;43.58;;;16.77;;
20908;SDS011;10614;53.198;6.570;2023-02-23T01:26:58;39.60;;;17.88;;
20908;SDS011;10614;53.198;6.570;2023-02-23T01:29:00;42.17;;;16.08;;
20908;SDS011;10614;53.198;6.570;2023-02-23T01:31:08;43.08;;;18.27;;
20908;SDS011;10614;53.198;6.570;2023-02-23T01:33:10;39.55;;;16.50;;
20908;SDS011;10614;53.198;6.570;2023-02-23T01:35:13;50.42;;;19.75;;
20908;SDS011;10614;53.198;6.570;2023-02-23T01:37:14;49.28;;;17.95;;
20908;SDS011;10614;53.198;6.570;2023-02-23T01:39:17;51.80;;;20.23;;
20908;SDS011;10614;53.198;6.570;2023-02-23T01:41:20;47.78;;;18.35;;
20908;SDS011;10614;53.198;6.570;2023-02-23T01:43:22;47.72;;;18.80;;
20908;SDS011;10614;53.198;6.570;2023-02-23T01:45:27;47.55;;;18.75;;
20908;SDS011;10614;53.198;6.570;2023-02-23T01:47:31;53.50;;;19.92;;
20908;SDS011;10614;53.198;6.570;2023-02-23T01:49:34;49.17;;;18.58;;
20908;SDS011;10614;53.198;6.570;2023-02-23T01:51:36;53.30;;;19.98;;
20908;SDS011;10614;53.198;6.570;2023-02-23T01:53:42;49.83;;;18.10;;
20908;SDS011;10614;53.198;6.570;2023-02-23T01:55:48;56.38;;;20.40;;
20908;SDS011;10614;53.198;6.570;2023-02-23T01:57:56;55.50;;;19.65;;
20908;SDS011;10614;53.198;6.570;2023-02-23T02:00:03;46.92;;;17.80;;
20908;SDS011;10614;53.198;6.570;2023-02-23T02:02:12;41.38;;;15.95;;
20908;SDS011;10614;53.198;6.570;2023-02-23T02:04:15;54.40;;;18.83;;
20908;SDS011;10614;53.198;6.570;2023-02-23T02:06:18;50.45;;;19.58;;
20908;SDS011;10614;53.198;6.570;2023-02-23T02:08:23;44.88;;;16.67;;
20908;SDS011;10614;53.198;6.570;2023-02-23T02:10:27;44.78;;;17.92;;
20908;SDS011;10614;53.198;6.570;2023-02-23T02:12:45;40.95;;;16.20;;
20908;SDS011;10614;53.198;6.570;2023-02-23T02:14:52;40.22;;;17.13;;
20908;SDS011;10614;53.198;6.570;2023-02-23T02:17:10;44.35;;;16.83;;
20908;SDS011;10614;53.198;6.570;2023-02-23T02:19:38;43.40;;;16.90;;
20908;SDS011;10614;53.198;6.570;2023-02-23T02:22:17;39.72;;;15.25;;
20908;SDS011;10614;53.198;6.570;2023-02-23T02:24:50;38.08;;;15.13;;
20908;SDS011;10614;53.198;6.570;2023-02-23T02:27:12;51.08;;;19.23;;
20908;SDS011;10614;53.198;6.570;2023-02-23T02:32:26;38.97;;;15.13;;
20908;SDS011;10614;53.198;6.570;2023-02-23T02:37:30;45.58;;;16.75;;
20908;SDS011;10614;53.198;6.570;2023-02-23T02:41:55;41.70;;;15.57;;
20908;SDS011;10614;53.198;6.570;2023-02-23T02:44:09;45.55;;;17.35;;
20908;SDS011;10614;53.198;6.570;2023-02-23T02:46:15;39.15;;;15.95;;
20908;SDS011;10614;53.198;6.570;2023-02-23T02:48:22;39.95;;;15.35;;
20908;SDS011;10614;53.198;6.570;2023-02-23T02:50:35;54.28;;;18.35;;
20908;SDS011;10614;53.198;6.570;2023-02-23T02:52:47;37.97;;;15.02;;
20908;SDS011;10614;53.198;6.570;2023-02-23T02:54:56;40.03;;;15.45;;
20908;SDS011;10614;53.198;6.570;2023-02-23T02:57:04;48.22;;;17.85;;
20908;SDS011;10614;53.198;6.570;2023-02-23T02:59:08;50.97;;;17.10;;
20908;SDS011;10614;53.198;6.570;2023-02-23T03:01:31;51.08;;;18.85;;
20908;SDS011;10614;53.198;6.570;2023-02-23T03:03:50;46.55;;;16.60;;
20908;SDS011;10614;53.198;6.570;2023-02-23T03:06:09;43.92;;;16.63;;
20908;SDS011;10614;53.198;6.570;2023-02-23T03:08:32;48.78;;;18.63;;
20908;SDS011;10614;53.198;6.570;2023-02-23T03:10:58;41.22;;;16.98;;
20908;SDS011;10614;53.198;6.570;2023-02-23T03:13:23;47.78;;;15.77;;
20908;SDS011;10614;53.198;6.570;2023-02-23T03:15:54;49.88;;;17.48;;
20908;SDS011;10614;53.198;6.570;2023-02-23T03:18:23;56.40;;;20.42;;
20908;SDS011;10614;53.198;6.570;2023-02-23T03:23:18;42.58;;;16.77;;
20908;SDS011;10614;53.198;6.570;2023-02-23T03:25:44;42.60;;;15.88;;
20908;SDS011;10614;53.198;6.570;2023-02-23T03:28:09;39.95;;;16.08;;
20908;SDS011;10614;53.198;6.570;2023-02-23T03:30:34;49.80;;;18.60;;
20908;SDS011;10614;53.198;6.570;2023-02-23T03:33:00;45.67;;;17.92;;
20908;SDS011;10614;53.198;6.570;2023-02-23T03:35:27;48.95;;;17.90;;
20908;SDS011;10614;53.198;6.570;2023-02-23T03:37:53;46.17;;;16.98;;
20908;SDS011;10614;53.198;6.570;2023-02-23T03:40:17;44.25;;;16.65;;
20908;SDS011;10614;53.198;6.570;2023-02-23T03:42:40;42.78;;;17.15;;
20908;SDS011;10614;53.198;6.570;2023-02-23T03:45:03;46.45;;;17.75;;
20908;SDS011;10614;53.198;6.570;2023-02-23T03:47:26;44.42;;;17.02;;
20908;SDS011;10614;53.198;6.570;2023-02-23T03:49:48;43.00;;;16.15;;
20908;SDS011;10614;53.198;6.570;2023-02-23T03:52:09;39.65;;;15.32;;
20908;SDS011;10614;53.198;6.570;2023-02-23T03:54:33;37.00;;;15.25;;
20908;SDS011;10614;53.198;6.570;2023-02-23T03:56:55;56.60;;;20.77;;
20908;SDS011;10614;53.198;6.570;2023-02-23T03:59:19;40.13;;;15.25;;
20908;SDS011;10614;53.198;6.570;2023-02-23T04:01:43;48.30;;;16.92;;
20908;SDS011;10614;53.198;6.570;2023-02-23T04:04:02;42.92;;;15.77;;
20908;SDS011;10614;53.198;6.570;2023-02-23T04:06:25;39.80;;;15.60;;
20908;SDS011;10614;53.198;6.570;2023-02-23T04:08:48;42.97;;;16.73;;
20908;SDS011;10614;53.198;6.570;2023-02-23T04:11:11;45.15;;;17.27;;
20908;SDS011;10614;53.198;6.570;2023-02-23T04:13:36;37.53;;;15.68;;
20908;SDS011;10614;53.198;6.570;2023-02-23T04:15:41;41.75;;;16.33;;
20908;SDS011;10614;53.198;6.570;2023-02-23T04:17:46;55.38;;;20.40;;
20908;SDS011;10614;53.198;6.570;2023-02-23T04:19:48;42.30;;;15.45;;
20908;SDS011;10614;53.198;6.570;2023-02-23T04:21:50;43.63;;;15.82;;
20908;SDS011;10614;53.198;6.570;2023-02-23T04:23:51;43.38;;;16.60;;
20908;SDS011;10614;53.198;6.570;2023-02-23T04:25:53;40.63;;;15.32;;
20908;SDS011;10614;53.198;6.570;2023-02-23T04:27:55;45.38;;;16.90;;
20908;SDS011;10614;53.198;6.570;2023-02-23T04:29:57;48.30;;;19.27;;
20908;SDS011;10614;53.198;6.570;2023-02-23T04:32:00;43.03;;;16.80;;
20908;SDS011;10614;53.198;6.570;2023-02-23T04:34:02;37.47;;;15.40;;
20908;SDS011;10614;53.198;6.570;2023-02-23T04:36:04;50.28;;;19.05;;
20908;SDS011;10614;53.198;6.570;2023-02-23T04:38:07;52.05;;;19.27;;
20908;SDS011;10614;53.198;6.570;2023-02-23T04:40:09;45.28;;;16.17;;
20908;SDS011;10614;53.198;6.570;2023-02-23T04:42:11;37.80;;;14.60;;
20908;SDS011;10614;53.198;6.570;2023-02-23T04:44:13;46.55;;;17.85;;
20908;SDS011;10614;53.198;6.570;2023-02-23T04:46:14;52.78;;;19.95;;
20908;SDS011;10614;53.198;6.570;2023-02-23T04:48:17;57.42;;;20.38;;
20908;SDS011;10614;53.198;6.570;2023-02-23T04:50:19;48.42;;;18.15;;
20908;SDS011;10614;53.198;6.570;2023-02-23T04:52:21;43.75;;;15.73;;
20908;SDS011;10614;53.198;6.570;2023-02-23T04:54:23;40.75;;;14.77;;
20908;SDS011;10614;53.198;6.570;2023-02-23T04:56:24;37.38;;;15.00;;
20908;SDS011;10614;53.198;6.570;2023-02-23T04:58:26;47.50;;;17.80;;
20908;SDS011;10614;53.198;6.570;2023-02-23T05:00:28;46.63;;;16.38;;
20908;SDS011;10614;53.198;6.570;2023-02-23T05:02:30;42.83;;;16.27;;
20908;SDS011;10614;53.198;6.570;2023-02-23T05:04:33;51.80;;;16.60;;
20908;SDS011;10614;53.198;6.570;2023-02-23T05:06:35;39.25;;;14.90;;
20908;SDS011;10614;53.198;6.570;2023-02-23T05:08:38;43.90;;;15.32;;
20908;SDS011;10614;53.198;6.570;2023-02-23T05:10:39;36.90;;;13.57;;
20908;SDS011;10614;53.198;6.570;2023-02-23T05:12:41;39.28;;;13.27;;
20908;SDS011;10614;53.198;6.570;2023-02-23T05:14:42;38.58;;;15.05;;
20908;SDS011;10614;53.198;6.570;2023-02-23T05:16:44;46.83;;;17.77;;
20908;SDS011;10614;53.198;6.570;2023-02-23T05:18:46;41.05;;;15.50;;
20908;SDS011;10614;53.198;6.570;2023-02-23T05:20:49;49.80;;;17.38;;
20908;SDS011;10614;53.198;6.570;2023-02-23T05:22:50;45.45;;;15.77;;
20908;SDS011;10614;53.198;6.570;2023-02-23T05:24:52;45.03;;;16.95;;
20908;SDS011;10614;53.198;6.570;2023-02-23T05:26:54;47.40;;;15.85;;
20908;SDS011;10614;53.198;6.570;2023-02-23T05:28:55;41.35;;;15.63;;
20908;SDS011;10614;53.198;6.570;2023-02-23T05:30:57;40.88;;;14.65;;
20908;SDS011;10614;53.198;6.570;2023-02-23T05:32:58;44.55;;;16.02;;
20908;SDS011;10614;53.198;6.570;2023-02-23T05:35:00;38.03;;;14.25;;
20908;SDS011;10614;53.198;6.570;2023-02-23T05:37:03;39.17;;;14.15;;
20908;SDS011;10614;53.198;6.570;2023-02-23T05:39:05;33.28;;;13.52;;
20908;SDS011;10614;53.198;6.570;2023-02-23T05:41:07;40.55;;;14.30;;
20908;SDS011;10614;53.198;6.570;2023-02-23T05:43:10;39.53;;;13.80;;
20908;SDS011;10614;53.198;6.570;2023-02-23T05:45:11;34.42;;;13.52;;
20908;SDS011;10614;53.198;6.570;2023-02-23T05:47:13;35.97;;;13.55;;
20908;SDS011;10614;53.198;6.570;2023-02-23T05:49:15;35.65;;;13.15;;
20908;SDS011;10614;53.198;6.570;2023-02-23T05:51:16;31.98;;;11.98;;
20908;SDS011;10614;53.198;6.570;2023-02-23T05:53:20;32.45;;;12.55;;
20908;SDS011;10614;53.198;6.570;2023-02-23T05:55:21;26.27;;;10.07;;
20908;SDS011;10614;53.198;6.570;2023-02-23T05:57:23;30.27;;;10.88;;
20908;SDS011;10614;53.198;6.570;2023-02-23T05:59:25;26.85;;;10.45;;
20908;SDS011;10614;53.198;6.570;2023-02-23T06:01:26;23.13;;;9.30;;
20908;SDS011;10614;53.198;6.570;2023-02-23T06:03:28;29.77;;;11.05;;
20908;SDS011;10614;53.198;6.570;2023-02-23T06:05:30;31.58;;;11.05;;
20908;SDS011;10614;53.198;6.570;2023-02-23T06:07:31;32.83;;;12.07;;
20908;SDS011;10614;53.198;6.570;2023-02-23T06:09:34;29.13;;;11.40;;
20908;SDS011;10614;53.198;6.570;2023-02-23T06:11:36;31.48;;;10.98;;
20908;SDS011;10614;53.198;6.570;2023-02-23T06:13:38;26.75;;;9.73;;
20908;SDS011;10614;53.198;6.570;2023-02-23T06:15:40;26.08;;;10.25;;
20908;SDS011;10614;53.198;6.570;2023-02-23T06:17:42;27.95;;;11.15;;
20908;SDS011;10614;53.198;6.570;2023-02-23T06:19:43;23.50;;;9.40;;
20908;SDS011;10614;53.198;6.570;2023-02-23T06:21:45;25.75;;;9.02;;
20908;SDS011;10614;53.198;6.570;2023-02-23T06:23:46;33.40;;;11.68;;
20908;SDS011;10614;53.198;6.570;2023-02-23T06:25:49;22.65;;;7.93;;
20908;SDS011;10614;53.198;6.570;2023-02-23T06:27:51;27.50;;;11.70;;
20908;SDS011;10614;53.198;6.570;2023-02-23T06:29:53;35.97;;;12.57;;
20908;SDS011;10614;53.198;6.570;2023-02-23T06:31:55;29.67;;;10.15;;
20908;SDS011;10614;53.198;6.570;2023-02-23T06:33:57;29.33;;;11.60;;
20908;SDS011;10614;53.198;6.570;2023-02-23T06:35:59;23.92;;;10.55;;
20908;SDS011;10614;53.198;6.570;2023-02-23T06:38:03;27.95;;;11.77;;
20908;SDS011;10614;53.198;6.570;2023-02-23T06:40:06;28.98;;;10.88;;
20908;SDS011;10614;53.198;6.570;2023-02-23T06:42:09;29.88;;;11.63;;
20908;SDS011;10614;53.198;6.570;2023-02-23T06:44:11;24.73;;;9.77;;
20908;SDS011;10614;53.198;6.570;2023-02-23T06:46:13;29.63;;;11.38;;
20908;SDS011;10614;53.198;6.570;2023-02-23T06:48:14;30.20;;;12.13;;
20908;SDS011;10614;53.198;6.570;2023-02-23T06:50:16;29.23;;;11.45;;
20908;SDS011;10614;53.198;6.570;2023-02-23T06:52:18;27.15;;;11.10;;
20908;SDS011;10614;53.198;6.570;2023-02-23T06:54:20;29.70;;;11.70;;
20908;SDS011;10614;53.198;6.570;2023-02-23T06:56:22;31.17;;;12.15;;
20908;SDS011;10614;53.198;6.570;2023-02-23T06:58:26;26.92;;;11.23;;
20908;SDS011;10614;53.198;6.570;2023-02-23T07:00:27;32.33;;;12.07;;
20908;SDS011;10614;53.198;6.570;2023-02-23T07:02:29;27.90;;;11.52;;
20908;SDS011;10614;53.198;6.570;2023-02-23T07:04:31;27.52;;;11.30;;
20908;SDS011;10614;53.198;6.570;2023-02-23T07:06:33;29.15;;;12.25;;
20908;SDS011;10614;53.198;6.570;2023-02-23T07:08:36;27.33;;;11.60;;
20908;SDS011;10614;53.198;6.570;2023-02-23T07:10:37;30.13;;;11.93;;
20908;SDS011;10614;53.198;6.570;2023-02-23T07:12:39;28.52;;;12.10;;
20908;SDS011;10614;53.198;6.570;2023-02-23T07:14:42;30.48;;;11.45;;
20908;SDS011;10614;53.198;6.570;2023-02-23T07:16:44;30.38;;;11.98;;
20908;SDS011;10614;53.198;6.570;2023-02-23T07:18:45;30.17;;;9.80;;
20908;SDS011;10614;53.198;6.570;2023-02-23T07:20:48;28.02;;;10.77;;
20908;SDS011;10614;53.198;6.570;2023-02-23T07:22:50;31.88;;;11.15;;
20908;SDS011;10614;53.198;6.570;2023-02-23T07:24:54;24.25;;;10.43;;
20908;SDS011;10614;53.198;6.570;2023-02-23T07:26:56;32.55;;;12.93;;
20908;SDS011;10614;53.198;6.570;2023-02-23T07:28:57;24.75;;;10.75;;
20908;SDS011;10614;53.198;6.570;2023-02-23T07:31:00;28.60;;;10.82;;
20908;SDS011;10614;53.198;6.570;2023-02-23T07:33:02;25.77;;;10.40;;
20908;SDS011;10614;53.198;6.570;2023-02-23T07:35:04;24.27;;;10.48;;
20908;SDS011;10614;53.198;6.570;2023-02-23T07:37:06;26.95;;;11.93;;
20908;SDS011;10614;53.198;6.570;2023-02-23T07:39:08;26.50;;;12.45;;
20908;SDS011;10614;53.198;6.570;2023-02-23T07:41:10;26.92;;;11.35;;
20908;SDS011;10614;53.198;6.570;2023-02-23T07:43:11;28.70;;;11.88;;
20908;SDS011;10614;53.198;6.570;2023-02-23T07:45:13;32.08;;;12.23;;
20908;SDS011;10614;53.198;6.570;2023-02-23T07:47:17;27.33;;;11.77;;
20908;SDS011;10614;53.198;6.570;2023-02-23T07:49:18;27.40;;;10.57;;
20908;SDS011;10614;53.198;6.570;2023-02-23T07:51:20;23.70;;;10.68;;
20908;SDS011;10614;53.198;6.570;2023-02-23T07:53:22;26.95;;;10.00;;
20908;SDS011;10614;53.198;6.570;2023-02-23T07:55:24;22.70;;;10.15;;
20908;SDS011;10614;53.198;6.570;2023-02-23T07:57:26;24.38;;;10.48;;
20908;SDS011;10614;53.198;6.570;2023-02-23T07:59:28;24.58;;;9.98;;
20908;SDS011;10614;53.198;6.570;2023-02-23T08:01:31;25.88;;;10.75;;
20908;SDS011;10614;53.198;6.570;2023-02-23T08:03:34;22.63;;;9.50;;
20908;SDS011;10614;53.198;6.570;2023-02-23T08:05:35;20.98;;;9.55;;
20908;SDS011;10614;53.198;6.570;2023-02-23T08:07:39;24.60;;;9.27;;
20908;SDS011;10614;53.198;6.570;2023-02-23T08:09:40;21.33;;;8.82;;
20908;SDS011;10614;53.198;6.570;2023-02-23T08:11:42;28.05;;;11.02;;
20908;SDS011;10614;53.198;6.570;2023-02-23T08:13:44;28.23;;;10.85;;
20908;SDS011;10614;53.198;6.570;2023-02-23T08:15:45;22.95;;;9.05;;
20908;SDS011;10614;53.198;6.570;2023-02-23T08:17:47;27.58;;;10.52;;
20908;SDS011;10614;53.198;6.570;2023-02-23T08:19:50;30.02;;;11.05;;
20908;SDS011;10614;53.198;6.570;2023-02-23T08:21:52;21.73;;;9.50;;
20908;SDS011;10614;53.198;6.570;2023-02-23T08:23:53;26.45;;;9.75;;
20908;SDS011;10614;53.198;6.570;2023-02-23T08:25:55;26.65;;;10.43;;
20908;SDS011;10614;53.198;6.570;2023-02-23T08:27:58;21.10;;;9.95;;
20908;SDS011;10614;53.198;6.570;2023-02-23T08:30:03;26.55;;;10.52;;
20908;SDS011;10614;53.198;6.570;2023-02-23T08:32:08;21.25;;;9.32;;
20908;SDS011;10614;53.198;6.570;2023-02-23T08:34:10;27.00;;;10.82;;
20908;SDS011;10614;53.198;6.570;2023-02-23T08:36:13;28.55;;;10.35;;
20908;SDS011;10614;53.198;6.570;2023-02-23T08:38:15;26.80;;;9.20;;
20908;SDS011;10614;53.198;6.570;2023-02-23T08:40:17;22.05;;;8.60;;
20908;SDS011;10614;53.198;6.570;2023-02-23T08:42:19;25.38;;;9.48;;
20908;SDS011;10614;53.198;6.570;2023-02-23T08:44:21;23.75;;;8.85;;
20908;SDS011;10614;53.198;6.570;2023-02-23T08:46:23;21.75;;;8.88;;
20908;SDS011;10614;53.198;6.570;2023-02-23T08:48:24;21.25;;;9.20;;
20908;SDS011;10614;53.198;6.570;2023-02-23T08:50:26;22.13;;;9.00;;
20908;SDS011;10614;53.198;6.570;2023-02-23T08:52:29;25.17;;;8.93;;
20908;SDS011;10614;53.198;6.570;2023-02-23T08:54:30;19.80;;;7.93;;
20908;SDS011;10614;53.198;6.570;2023-02-23T08:56:32;24.48;;;8.25;;
20908;SDS011;10614;53.198;6.570;2023-02-23T08:58:34;22.50;;;9.52;;
20908;SDS011;10614;53.198;6.570;2023-02-23T09:00:36;27.08;;;10.32;;
20908;SDS011;10614;53.198;6.570;2023-02-23T09:02:40;29.33;;;10.98;;
20908;SDS011;10614;53.198;6.570;2023-02-23T09:04:41;27.13;;;10.00;;
20908;SDS011;10614;53.198;6.570;2023-02-23T09:06:43;28.10;;;9.48;;
20908;SDS011;10614;53.198;6.570;2023-02-23T09:08:48;22.77;;;10.07;;
20908;SDS011;10614;53.198;6.570;2023-02-23T09:10:49;25.15;;;8.95;;
20908;SDS011;10614;53.198;6.570;2023-02-23T09:12:52;23.70;;;9.30;;
20908;SDS011;10614;53.198;6.570;2023-02-23T09:14:54;21.52;;;8.57;;
20908;SDS011;10614;53.198;6.570;2023-02-23T09:16:55;21.48;;;8.90;;
20908;SDS011;10614;53.198;6.570;2023-02-23T09:18:57;27.55;;;11.25;;
20908;SDS011;10614;53.198;6.570;2023-02-23T09:21:01;31.17;;;11.30;;
20908;SDS011;10614;53.198;6.570;2023-02-23T09:23:05;29.05;;;11.07;;
20908;SDS011;10614;53.198;6.570;2023-02-23T09:25:09;24.67;;;9.80;;
20908;SDS011;10614;53.198;6.570;2023-02-23T09:27:11;24.25;;;10.18;;
20908;SDS011;10614;53.198;6.570;2023-02-23T09:29:13;26.65;;;11.55;;
20908;SDS011;10614;53.198;6.570;2023-02-23T09:31:16;25.42;;;10.43;;
20908;SDS011;10614;53.198;6.570;2023-02-23T09:33:19;27.27;;;10.45;;
20908;SDS011;10614;53.198;6.570;2023-02-23T09:35:22;27.52;;;10.40;;
20908;SDS011;10614;53.198;6.570;2023-02-23T09:37:24;27.73;;;10.70;;
20908;SDS011;10614;53.198;6.570;2023-02-23T09:39:26;25.67;;;9.93;;
20908;SDS011;10614;53.198;6.570;2023-02-23T09:41:37;25.02;;;9.65;;
20908;SDS011;10614;53.198;6.570;2023-02-23T09:43:52;22.70;;;9.18;;
20908;SDS011;10614;53.198;6.570;2023-02-23T09:46:01;26.40;;;10.05;;
20908;SDS011;10614;53.198;6.570;2023-02-23T09:48:13;30.70;;;11.07;;
20908;SDS011;10614;53.198;6.570;2023-02-23T09:50:19;29.48;;;10.68;;
20908;SDS011;10614;53.198;6.570;2023-02-23T09:52:24;27.50;;;10.38;;
20908;SDS011;10614;53.198;6.570;2023-02-23T09:56:33;25.10;;;9.70;;
20908;SDS011;10614;53.198;6.570;2023-02-23T09:58:39;30.40;;;11.75;;
20908;SDS011;10614;53.198;6.570;2023-02-23T10:00:42;31.48;;;11.05;;
20908;SDS011;10614;53.198;6.570;2023-02-23T10:02:58;30.38;;;10.80;;
20908;SDS011;10614;53.198;6.570;2023-02-23T10:05:09;32.83;;;11.38;;
20908;SDS011;10614;53.198;6.570;2023-02-23T10:07:15;33.45;;;11.50;;
20908;SDS011;10614;53.198;6.570;2023-02-23T10:09:23;31.77;;;10.93;;
20908;SDS011;10614;53.198;6.570;2023-02-23T10:11:36;31.08;;;10.63;;
20908;SDS011;10614;53.198;6.570;2023-02-23T10:13:47;36.47;;;12.07;;
20908;SDS011;10614;53.198;6.570;2023-02-23T10:15:57;41.22;;;14.73;;
20908;SDS011;10614;53.198;6.570;2023-02-23T10:18:08;48.50;;;15.90;;
20908;SDS011;10614;53.198;6.570;2023-02-23T10:20:21;45.92;;;15.50;;
20908;SDS011;10614;53.198;6.570;2023-02-23T10:22:31;41.88;;;14.40;;
20908;SDS011;10614;53.198;6.570;2023-02-23T10:24:35;47.67;;;16.88;;
20908;SDS011;10614;53.198;6.570;2023-02-23T10:26:41;46.50;;;14.80;;
20908;SDS011;10614;53.198;6.570;2023-02-23T10:28:47;55.90;;;16.42;;
20908;SDS011;10614;53.198;6.570;2023-02-23T10:30:49;54.50;;;17.45;;
20908;SDS011;10614;53.198;6.570;2023-02-23T10:32:52;45.75;;;16.35;;
20908;SDS011;10614;53.198;6.570;2023-02-23T10:34:59;60.15;;;17.85;;
20908;SDS011;10614;53.198;6.570;2023-02-23T10:37:05;57.83;;;16.73;;
20908;SDS011;10614;53.198;6.570;2023-02-23T10:39:11;45.50;;;15.40;;
20908;SDS011;10614;53.198;6.570;2023-02-23T10:41:13;51.10;;;15.90;;
20908;SDS011;10614;53.198;6.570;2023-02-23T10:43:16;47.33;;;15.73;;
20908;SDS011;10614;53.198;6.570;2023-02-23T10:45:18;55.00;;;16.00;;
20908;SDS011;10614;53.198;6.570;2023-02-23T10:47:23;54.80;;;15.95;;
20908;SDS011;10614;53.198;6.570;2023-02-23T10:49:28;52.65;;;16.73;;
20908;SDS011;10614;53.198;6.570;2023-02-23T10:51:38;49.42;;;13.85;;
20908;SDS011;10614;53.198;6.570;2023-02-23T10:53:43;51.67;;;13.02;;
20908;SDS011;10614;53.198;6.570;2023-02-23T10:55:45;58.63;;;14.63;;
20908;SDS011;10614;53.198;6.570;2023-02-23T10:57:47;48.33;;;13.98;;
20908;SDS011;10614;53.198;6.570;2023-02-23T11:00:04;56.63;;;15.13;;
20908;SDS011;10614;53.198;6.570;2023-02-23T11:02:26;50.17;;;13.85;;
20908;SDS011;10614;53.198;6.570;2023-02-23T11:04:31;39.92;;;11.60;;
20908;SDS011;10614;53.198;6.570;2023-02-23T11:06:35;55.33;;;12.60;;
20908;SDS011;10614;53.198;6.570;2023-02-23T11:08:38;53.35;;;12.13;;
20908;SDS011;10614;53.198;6.570;2023-02-23T11:10:40;50.13;;;11.88;;
20908;SDS011;10614;53.198;6.570;2023-02-23T11:12:42;41.03;;;10.32;;
20908;SDS011;10614;53.198;6.570;2023-02-23T11:14:44;39.85;;;10.70;;
20908;SDS011;10614;53.198;6.570;2023-02-23T11:16:47;36.42;;;8.55;;
20908;SDS011;10614;53.198;6.570;2023-02-23T11:18:49;40.83;;;10.77;;
20908;SDS011;10614;53.198;6.570;2023-02-23T11:20:54;27.45;;;7.82;;
20908;SDS011;10614;53.198;6.570;2023-02-23T11:22:56;45.40;;;10.93;;
20908;SDS011;10614;53.198;6.570;2023-02-23T11:24:59;44.20;;;10.13;;
20908;SDS011;10614;53.198;6.570;2023-02-23T11:27:06;42.35;;;10.77;;
20908;SDS011;10614;53.198;6.570;2023-02-23T11:29:21;37.78;;;10.73;;
20908;SDS011;10614;53.198;6.570;2023-02-23T11:31:29;45.92;;;11.80;;
20908;SDS011;10614;53.198;6.570;2023-02-23T11:33:34;44.10;;;12.18;;
20908;SDS011;10614;53.198;6.570;2023-02-23T11:35:39;35.78;;;9.75;;
20908;SDS011;10614;53.198;6.570;2023-02-23T11:37:41;47.92;;;11.00;;
20908;SDS011;10614;53.198;6.570;2023-02-23T11:39:48;46.22;;;11.52;;
20908;SDS011;10614;53.198;6.570;2023-02-23T11:42:09;47.22;;;11.90;;
20908;SDS011;10614;53.198;6.570;2023-02-23T11:44:20;42.95;;;11.52;;
20908;SDS011;10614;53.198;6.570;2023-02-23T11:46:25;58.35;;;14.00;;
20908;SDS011;10614;53.198;6.570;2023-02-23T11:48:30;55.85;;;13.60;;
20908;SDS011;10614;53.198;6.570;2023-02-23T11:50:35;51.38;;;12.90;;
20908;SDS011;10614;53.198;6.570;2023-02-23T11:52:38;52.00;;;13.05;;
20908;SDS011;10614;53.198;6.570;2023-02-23T11:54:48;51.72;;;13.68;;
20908;SDS011;10614;53.198;6.570;2023-02-23T11:56:52;45.75;;;10.85;;
20908;SDS011;10614;53.198;6.570;2023-02-23T11:58:57;57.20;;;13.70;;
20908;SDS011;10614;53.198;6.570;2023-02-23T12:01:02;68.80;;;16.63;;
20908;SDS011;10614;53.198;6.570;2023-02-23T12:03:11;50.08;;;14.27;;
20908;SDS011;10614;53.198;6.570;2023-02-23T12:05:22;62.22;;;15.02;;
20908;SDS011;10614;53.198;6.570;2023-02-23T12:07:31;57.17;;;13.40;;
20908;SDS011;10614;53.198;6.570;2023-02-23T12:09:40;56.33;;;14.88;;
20908;SDS011;10614;53.198;6.570;2023-02-23T12:13:50;59.00;;;15.02;;
20908;SDS011;10614;53.198;6.570;2023-02-23T12:15:57;62.45;;;17.90;;
20908;SDS011;10614;53.198;6.570;2023-02-23T12:18:03;72.32;;;17.23;;
20908;SDS011;10614;53.198;6.570;2023-02-23T12:20:13;62.03;;;16.67;;
20908;SDS011;10614;53.198;6.570;2023-02-23T12:22:21;69.65;;;16.35;;
20908;SDS011;10614;53.198;6.570;2023-02-23T12:24:33;59.95;;;14.23;;
20908;SDS011;10614;53.198;6.570;2023-02-23T12:26:44;61.50;;;15.75;;
20908;SDS011;10614;53.198;6.570;2023-02-23T12:28:51;73.30;;;18.90;;
20908;SDS011;10614;53.198;6.570;2023-02-23T12:30:59;56.28;;;16.75;;
20908;SDS011;10614;53.198;6.570;2023-02-23T12:33:08;69.72;;;17.27;;